Time;durP1;ratioP1;P1;durP2;ratioP2;P2;SDS_P1;SDS_P2;PMS_P1;PMS_P2;Temp;Humidity;BMP_temperature;BMP_pressure;BME280_temperature;BME280_humidity;BME280_pressure;Samples;Min_cycle;Max_cycle;Signal;HPM_P1;HPM_P2
2023/09/23 00:01:25;;;;;;;6.22;2.08;;;19.10;80.50;;;;;;7400345;19;19946;-70
2023/09/23 00:03:52;;;;;;;5.40;1.73;;;19.10;79.70;;;;;;7401239;19;19922;-72
2023/09/23 00:06:20;;;;;;;6.35;1.42;;;19.10;78.80;;;;;;7399659;19;19918;-71
2023/09/23 00:08:47;;;;;;;5.43;1.30;;;19.10;78.60;;;;;;7399717;19;19914;-71
2023/09/23 00:11:14;;;;;;;4.22;1.55;;;19.00;78.60;;;;;;7399563;19;19923;-70
2023/09/23 00:13:40;;;;;;;;;;;19.00;78.50;;;;;;7400838;19;19935;-72
2023/09/23 00:16:15;;;;;;;4.18;1.60;;;19.10;78.50;;;;;;7399970;19;20056;-71
2023/09/23 00:18:43;;;;;;;7.53;2.08;;;19.00;78.10;;;;;;7400362;19;19915;-70
2023/09/23 00:21:09;;;;;;;5.35;1.58;;;19.10;77.90;;;;;;7402849;19;19919;-72
2023/09/23 00:23:35;;;;;;;4.22;1.52;;;19.10;77.60;;;;;;7401548;19;19914;-71
2023/09/23 00:26:02;;;;;;;4.10;1.92;;;19.20;77.50;;;;;;7401809;19;19915;-71
2023/09/23 00:28:30;;;;;;;5.75;1.05;;;19.20;77.60;;;;;;7400913;19;19921;-71
2023/09/23 00:31:16;;;;;;;3.35;1.33;;;19.20;77.20;;;;;;7400779;19;19926;-71
2023/09/23 00:33:42;;;;;;;3.60;1.42;;;19.10;77.20;;;;;;7400203;19;19918;-71
2023/09/23 00:36:09;;;;;;;3.58;1.75;;;19.00;77.30;;;;;;7400849;19;19911;-71
2023/09/23 00:38:38;;;;;;;5.68;1.48;;;19.00;77.00;;;;;;7401455;19;19906;-70
2023/09/23 00:41:06;;;;;;;5.07;1.65;;;19.00;75.90;;;;;;7400756;19;19922;-71
2023/09/23 00:43:35;;;;;;;5.03;1.50;;;19.00;76.30;;;;;;7401869;19;19926;-71
2023/09/23 00:46:05;;;;;;;3.03;1.15;;;18.90;75.20;;;;;;7401846;19;19922;-71
2023/09/23 00:48:43;;;;;;;5.55;1.35;;;18.80;74.60;;;;;;7399122;19;19930;-70
2023/09/23 00:51:10;;;;;;;4.97;1.33;;;18.80;75.20;;;;;;7400191;19;19911;-71
2023/09/23 00:53:48;;;;;;;3.58;1.35;;;18.80;75.30;;;;;;7402527;19;20493;-70
2023/09/23 00:56:16;;;;;;;3.03;1.08;;;18.70;75.60;;;;;;7401071;19;20236;-70
2023/09/23 00:58:44;;;;;;;4.07;1.40;;;18.70;75.70;;;;;;7402687;19;19918;-71
2023/09/23 01:01:10;;;;;;;3.67;1.00;;;18.60;76.20;;;;;;7398486;19;19906;-70
2023/09/23 01:03:38;;;;;;;4.60;1.60;;;18.60;75.90;;;;;;7400405;19;19931;-70
2023/09/23 01:06:15;;;;;;;4.88;1.13;;;18.60;75.60;;;;;;7400362;19;19921;-71
2023/09/23 01:08:43;;;;;;;3.92;1.05;;;18.70;74.80;;;;;;7402136;19;19931;-71
2023/09/23 01:11:09;;;;;;;3.65;1.27;;;18.60;74.30;;;;;;7399340;19;19944;-71
2023/09/23 01:13:35;;;;;;;3.55;1.38;;;18.60;74.60;;;;;;7398645;19;19918;-70
2023/09/23 01:16:06;;;;;;;4.28;1.20;;;18.50;74.60;;;;;;7401425;19;19934;-72
2023/09/23 01:18:34;;;;;;;4.45;1.05;;;18.50;74.50;;;;;;7400688;19;19926;-70
2023/09/23 01:21:02;;;;;;;4.97;1.40;;;18.50;74.30;;;;;;7378570;19;20398;-71
2023/09/23 01:23:28;;;;;;;4.00;1.17;;;18.50;74.00;;;;;;7399100;19;19915;-71
2023/09/23 01:25:54;;;;;;;2.30;0.98;;;18.50;73.70;;;;;;7399338;19;19942;-72
2023/09/23 01:28:20;;;;;;;3.53;1.30;;;18.50;73.10;;;;;;7400042;19;19915;-71
2023/09/23 01:30:45;;;;;;;4.72;1.35;;;18.50;72.90;;;;;;7399383;19;19918;-72
2023/09/23 01:33:14;;;;;;;3.45;1.05;;;18.50;73.50;;;;;;7398395;19;19919;-72
2023/09/23 01:35:41;;;;;;;3.78;1.27;;;18.50;73.10;;;;;;7400224;19;19930;-71
2023/09/23 01:38:07;;;;;;;3.65;1.80;;;18.50;73.10;;;;;;7397782;19;20482;-71
2023/09/23 01:40:36;;;;;;;5.63;1.38;;;18.50;72.60;;;;;;7398914;19;19926;-73
2023/09/23 01:43:02;;;;;;;3.92;1.40;;;18.50;72.80;;;;;;7399256;19;20355;-71
2023/09/23 01:45:28;;;;;;;3.70;1.52;;;18.50;72.80;;;;;;7399537;19;20422;-70
2023/09/23 01:47:56;;;;;;;5.25;1.10;;;18.60;72.40;;;;;;7397562;19;19918;-71
2023/09/23 01:50:23;;;;;;;3.25;1.10;;;18.60;72.20;;;;;;7396439;19;19941;-71
2023/09/23 01:52:50;;;;;;;3.92;0.80;;;18.70;71.60;;;;;;7399166;19;19938;-71
2023/09/23 01:55:17;;;;;;;3.58;1.20;;;18.70;71.60;;;;;;7397053;19;19934;-69
2023/09/23 01:57:43;;;;;;;3.58;1.27;;;18.80;71.40;;;;;;7397107;19;19918;-71
2023/09/23 02:00:22;;;;;;;3.47;0.95;;;18.70;71.40;;;;;;7400686;19;20271;-70
2023/09/23 02:02:48;;;;;;;4.10;1.60;;;18.70;71.40;;;;;;7402536;19;19914;-71
2023/09/23 02:05:15;;;;;;;3.28;0.90;;;18.80;71.60;;;;;;7403919;19;19911;-70
2023/09/23 02:07:42;;;;;;;4.32;1.30;;;18.80;71.50;;;;;;7404984;19;19926;-70
2023/09/23 02:10:14;;;;;;;3.85;1.60;;;18.80;71.40;;;;;;7398279;19;19911;-70
2023/09/23 02:12:42;;;;;;;4.00;1.45;;;18.80;71.80;;;;;;7402834;19;19937;-70
2023/09/23 02:15:08;;;;;;;3.00;1.10;;;18.80;71.90;;;;;;7405204;19;19918;-70
2023/09/23 02:17:37;;;;;;;3.08;1.10;;;18.80;71.60;;;;;;7401423;19;19922;-70
2023/09/23 02:20:17;;;;;;;3.70;1.23;;;18.80;71.50;;;;;;7403501;19;19946;-70
2023/09/23 02:22:45;;;;;;;4.53;1.05;;;18.80;71.30;;;;;;7403654;19;20285;-70
2023/09/23 02:25:13;;;;;;;5.28;1.33;;;18.80;71.10;;;;;;7401918;19;19944;-71
2023/09/23 02:27:41;;;;;;;4.57;1.63;;;18.80;71.00;;;;;;7401404;19;19918;-71
2023/09/23 02:30:10;;;;;;;2.78;1.67;;;18.80;71.10;;;;;;7402703;19;19950;-70
2023/09/23 02:32:40;;;;;;;4.15;1.60;;;18.80;71.20;;;;;;7401613;19;20668;-70
2023/09/23 02:35:11;;;;;;;3.20;1.05;;;18.70;71.60;;;;;;7403973;19;19922;-70
2023/09/23 02:37:41;;;;;;;4.05;1.15;;;18.60;72.00;;;;;;7402175;19;20470;-70
2023/09/23 02:40:12;;;;;;;4.38;1.25;;;18.60;72.90;;;;;;7403396;19;20347;-70
2023/09/23 02:42:40;;;;;;;4.57;1.40;;;18.60;75.30;;;;;;7404022;19;19990;-70
2023/09/23 02:45:09;;;;;;;5.45;1.77;;;18.50;76.20;;;;;;7404129;19;19919;-70
2023/09/23 02:47:36;;;;;;;4.90;1.30;;;18.50;74.80;;;;;;7403642;19;19931;-70
2023/09/23 02:50:09;;;;;;;2.63;1.02;;;18.40;72.70;;;;;;7402870;19;19925;-69
2023/09/23 02:52:38;;;;;;;5.10;1.33;;;18.40;64.40;;;;;;7402649;19;20245;-70
2023/09/23 02:55:19;;;;;;;3.83;1.25;;;18.30;62.20;;;;;;7400745;19;19923;-70
2023/09/23 02:57:48;;;;;;;3.80;0.70;;;18.30;61.40;;;;;;7404928;19;19915;-70
2023/09/23 03:00:19;;;;;;;3.90;1.08;;;18.20;58.00;;;;;;7402258;19;20020;-71
2023/09/23 03:02:54;;;;;;;2.50;1.45;;;18.10;56.40;;;;;;7404482;19;20681;-70
2023/09/23 03:05:31;;;;;;;3.30;0.65;;;18.00;55.00;;;;;;7400494;19;20466;-71
2023/09/23 03:08:01;;;;;;;2.60;0.70;;;17.90;54.20;;;;;;7403495;19;20358;-70
2023/09/23 03:10:32;;;;;;;3.60;1.02;;;17.80;54.10;;;;;;7401278;19;19918;-70
2023/09/23 03:13:04;;;;;;;3.55;1.40;;;17.80;54.50;;;;;;7404189;19;19948;-70
2023/09/23 03:15:44;;;;;;;3.83;1.55;;;17.70;53.00;;;;;;7402604;19;19916;-71
2023/09/23 03:18:10;;;;;;;3.63;1.00;;;17.60;53.20;;;;;;7403193;19;19970;-71
2023/09/23 03:20:40;;;;;;;2.40;0.80;;;17.70;53.10;;;;;;7400402;19;19972;-71
2023/09/23 03:23:09;;;;;;;2.63;0.80;;;17.60;51.30;;;;;;7401600;19;19950;-71
2023/09/23 03:25:45;;;;;;;2.28;0.82;;;17.70;50.90;;;;;;7402739;19;19935;-71
2023/09/23 03:28:15;;;;;;;2.92;1.35;;;17.60;50.70;;;;;;7403003;19;19942;-71
2023/09/23 03:30:44;;;;;;;3.25;1.10;;;17.60;51.30;;;;;;7403244;19;20347;-70
2023/09/23 03:33:11;;;;;;;2.88;0.65;;;17.60;52.00;;;;;;7400655;19;20340;-71
2023/09/23 03:35:38;;;;;;;2.25;0.63;;;17.50;52.90;;;;;;7404703;19;19917;-70
2023/09/23 03:38:04;;;;;;;3.10;0.90;;;17.50;52.30;;;;;;7400558;19;19911;-70
2023/09/23 03:40:31;;;;;;;2.50;0.93;;;17.50;52.60;;;;;;7400788;19;20332;-71
2023/09/23 03:43:01;;;;;;;2.78;0.50;;;17.40;53.20;;;;;;7377034;19;19929;-71
2023/09/23 03:45:27;;;;;;;2.97;0.90;;;17.30;54.20;;;;;;7400148;19;19922;-70
2023/09/23 03:47:53;;;;;;;2.47;1.30;;;17.30;55.50;;;;;;7401268;19;19926;-71
2023/09/23 03:50:19;;;;;;;4.07;0.75;;;17.20;56.20;;;;;;7402785;19;19939;-70
2023/09/23 03:52:45;;;;;;;2.78;0.90;;;17.20;57.10;;;;;;7401225;19;19930;-70
2023/09/23 03:55:11;;;;;;;3.60;1.02;;;17.20;58.90;;;;;;7398464;19;19918;-70
2023/09/23 03:57:38;;;;;;;3.30;0.80;;;17.20;60.60;;;;;;7403225;19;20821;-71
2023/09/23 04:00:39;;;;;;;4.25;1.35;;;17.20;60.90;;;;;;7402186;19;19914;-70
2023/09/23 04:02:59;;;;;;;5.57;1.60;;;17.10;63.20;;;;;;7402477;19;19919;-70
2023/09/23 04:05:26;;;;;;;5.57;1.50;;;17.00;63.90;;;;;;7399563;19;19929;-69
2023/09/23 04:07:52;;;;;;;4.85;1.23;;;17.10;65.90;;;;;;7402654;19;20493;-70
2023/09/23 04:10:24;;;;;;;4.97;1.63;;;16.90;66.30;;;;;;7399711;19;19915;-69
2023/09/23 04:12:56;;;;;;;5.10;1.73;;;16.90;67.30;;;;;;7403712;19;19936;-69
2023/09/23 04:15:23;;;;;;;4.82;1.10;;;16.80;68.60;;;;;;7399998;19;20337;-70
2023/09/23 04:17:49;;;;;;;3.25;0.95;;;16.80;69.00;;;;;;7401395;19;20270;-70
2023/09/23 04:20:15;;;;;;;5.68;1.15;;;16.80;69.20;;;;;;7400785;19;19914;-70
2023/09/23 04:22:42;;;;;;;3.83;1.25;;;16.80;69.90;;;;;;7399307;19;19911;-69
2023/09/23 04:25:14;;;;;;;3.50;1.10;;;16.70;70.50;;;;;;7397995;19;19914;-70
2023/09/23 04:27:40;;;;;;;3.72;1.13;;;16.70;71.80;;;;;;7401307;19;19926;-69
2023/09/23 04:30:11;;;;;;;3.53;1.48;;;16.70;72.10;;;;;;7399946;19;19942;-70
2023/09/23 04:32:38;;;;;;;3.28;1.00;;;16.70;74.30;;;;;;7402222;19;19915;-69
2023/09/23 04:35:05;;;;;;;4.53;1.30;;;16.70;71.50;;;;;;7398778;19;20364;-69
2023/09/23 04:37:36;;;;;;;2.63;1.10;;;16.70;70.50;;;;;;7399981;19;19971;-70
2023/09/23 04:40:06;;;;;;;4.53;1.17;;;16.70;69.60;;;;;;7398790;19;20339;-70
2023/09/23 04:42:31;;;;;;;2.63;0.82;;;16.70;68.50;;;;;;7399764;19;19953;-70
2023/09/23 04:44:58;;;;;;;3.63;1.23;;;16.70;68.20;;;;;;7399501;19;19940;-70
2023/09/23 04:47:24;;;;;;;;;;;16.60;67.90;;;;;;7401824;19;19954;-71
2023/09/23 04:49:50;;;;;;;3.08;1.13;;;16.60;67.50;;;;;;7400558;19;20417;-69
2023/09/23 04:52:16;;;;;;;4.05;1.17;;;16.60;67.00;;;;;;7397488;19;19919;-70
2023/09/23 04:54:44;;;;;;;1.75;0.45;;;16.60;66.40;;;;;;7400609;19;20018;-69
2023/09/23 04:57:14;;;;;;;4.35;1.23;;;16.60;66.40;;;;;;7399812;19;19942;-70
2023/09/23 04:59:40;;;;;;;3.63;1.42;;;16.50;66.50;;;;;;7401465;19;19937;-71
2023/09/23 05:02:06;;;;;;;2.95;1.17;;;16.60;66.70;;;;;;7398365;19;19923;-70
2023/09/23 05:04:32;;;;;;;2.67;0.80;;;16.60;66.10;;;;;;7400819;19;19922;-70
2023/09/23 05:07:00;;;;;;;5.63;1.15;;;16.60;65.70;;;;;;7401593;19;19956;-70
2023/09/23 05:09:26;;;;;;;5.13;1.75;;;16.60;63.20;;;;;;7400673;19;19915;-70
2023/09/23 05:11:52;;;;;;;3.05;0.95;;;16.60;62.50;;;;;;7400628;19;19915;-70
2023/09/23 05:14:18;;;;;;;3.75;1.35;;;16.50;61.30;;;;;;7397979;19;19922;-70
2023/09/23 05:16:44;;;;;;;4.50;2.00;;;16.50;60.50;;;;;;7400929;19;19922;-70
2023/09/23 05:19:11;;;;;;;3.67;1.25;;;16.60;60.50;;;;;;7399177;19;19954;-70
2023/09/23 05:21:36;;;;;;;;;;;16.50;60.30;;;;;;7404155;19;20677;-69
2023/09/23 05:24:04;;;;;;;4.10;1.30;;;16.50;59.90;;;;;;7399547;19;19915;-69
2023/09/23 05:26:33;;;;;;;3.35;1.02;;;16.50;58.80;;;;;;7400413;19;19914;-70
2023/09/23 05:29:00;;;;;;;3.10;0.90;;;16.50;57.70;;;;;;7399313;19;19922;-70
2023/09/23 05:31:26;;;;;;;3.35;1.10;;;16.50;57.70;;;;;;7398440;19;19942;-70
2023/09/23 05:33:52;;;;;;;2.35;0.70;;;16.50;57.20;;;;;;7401449;19;19914;-70
2023/09/23 05:36:20;;;;;;;2.95;0.93;;;16.50;56.30;;;;;;7400220;19;19929;-69
2023/09/23 05:38:47;;;;;;;2.10;0.80;;;16.60;55.70;;;;;;7376491;19;20002;-70
2023/09/23 05:41:14;;;;;;;4.80;1.17;;;16.60;55.70;;;;;;7396744;19;19915;-70
2023/09/23 05:43:39;;;;;;;2.55;0.55;;;16.60;55.10;;;;;;7398227;19;19923;-71
2023/09/23 05:46:06;;;;;;;3.10;0.85;;;16.60;54.60;;;;;;7398297;19;19927;-70
2023/09/23 05:48:35;;;;;;;2.28;0.80;;;16.60;54.50;;;;;;7376986;19;20350;-71
2023/09/23 05:51:05;;;;;;;3.30;0.80;;;16.70;54.50;;;;;;7396824;19;19943;-70
2023/09/23 05:53:32;;;;;;;4.35;0.50;;;16.60;54.50;;;;;;7390941;19;19958;-70
2023/09/23 05:55:59;;;;;;;2.60;0.95;;;16.70;54.30;;;;;;7399582;19;19933;-70
2023/09/23 05:58:24;;;;;;;2.80;0.73;;;16.80;54.70;;;;;;7394813;19;19919;-70
2023/09/23 06:00:50;;;;;;;2.55;0.68;;;16.80;54.70;;;;;;7400067;19;19921;-70
2023/09/23 06:03:17;;;;;;;2.13;0.63;;;16.90;54.60;;;;;;7396819;19;19918;-71
2023/09/23 06:05:44;;;;;;;;;;;16.90;55.10;;;;;;7399597;19;20279;-70
2023/09/23 06:08:12;;;;;;;1.70;0.50;;;17.00;54.50;;;;;;7372613;19;19918;-69
2023/09/23 06:10:40;;;;;;;4.68;0.93;;;17.00;54.50;;;;;;7396752;19;19923;-71
2023/09/23 06:13:07;;;;;;;2.47;0.80;;;17.00;54.70;;;;;;7396105;19;19919;-70
2023/09/23 06:15:33;;;;;;;3.17;0.63;;;17.10;54.80;;;;;;7398673;19;19923;-71
2023/09/23 06:18:00;;;;;;;3.78;1.30;;;17.10;54.70;;;;;;7398664;19;19919;-71
2023/09/23 06:20:26;;;;;;;2.17;1.08;;;17.20;54.30;;;;;;7397091;19;20482;-69
2023/09/23 06:22:52;;;;;;;5.40;1.30;;;17.20;53.90;;;;;;7399223;19;19918;-70
2023/09/23 06:25:17;;;;;;;3.30;1.40;;;17.30;53.30;;;;;;7397510;19;19922;-70
2023/09/23 06:27:43;;;;;;;5.75;0.73;;;17.30;53.00;;;;;;7399654;19;20286;-70
2023/09/23 06:30:09;;;;;;;2.80;1.08;;;17.40;52.80;;;;;;7394916;19;20244;-72
2023/09/23 06:32:35;;;;;;;3.75;0.52;;;17.40;52.20;;;;;;7396192;19;19914;-72
2023/09/23 06:35:02;;;;;;;2.47;0.98;;;17.40;51.80;;;;;;7398021;19;20068;-71
2023/09/23 06:37:29;;;;;;;2.70;0.70;;;17.50;51.60;;;;;;7398078;19;20010;-72
2023/09/23 06:39:55;;;;;;;3.08;1.13;;;17.60;51.80;;;;;;7397877;19;19943;-71
2023/09/23 06:42:20;;;;;;;2.40;0.80;;;17.60;51.40;;;;;;7395783;19;19921;-71
2023/09/23 06:44:46;;;;;;;2.72;0.60;;;17.70;51.40;;;;;;7396862;19;19918;-72
2023/09/23 06:47:12;;;;;;;2.22;0.90;;;17.80;52.00;;;;;;7400412;19;19917;-72
2023/09/23 06:49:40;;;;;;;2.78;1.20;;;17.90;51.70;;;;;;7403776;19;19932;-71
2023/09/23 06:52:06;;;;;;;4.10;1.08;;;17.90;51.10;;;;;;7399598;19;19914;-72
2023/09/23 06:54:31;;;;;;;2.13;0.63;;;18.00;50.60;;;;;;7394930;19;20289;-72
2023/09/23 06:56:58;;;;;;;2.95;1.10;;;18.00;50.30;;;;;;7402252;19;19915;-71
2023/09/23 06:59:23;;;;;;;3.13;1.15;;;18.10;50.80;;;;;;7401018;19;19922;-72
2023/09/23 07:01:49;;;;;;;3.33;0.90;;;18.20;50.60;;;;;;7406290;19;19982;-72
2023/09/23 07:04:15;;;;;;;2.55;1.00;;;18.20;50.70;;;;;;7403097;19;19982;-72
2023/09/23 07:06:41;;;;;;;2.65;1.10;;;18.40;50.60;;;;;;7402872;19;19918;-72
2023/09/23 07:09:10;;;;;;;3.97;1.20;;;18.50;51.60;;;;;;7402712;19;19938;-71
2023/09/23 07:11:37;;;;;;;2.78;1.10;;;18.60;51.50;;;;;;7403345;19;19915;-72
2023/09/23 07:14:05;;;;;;;4.47;0.82;;;18.70;51.50;;;;;;7400760;19;20272;-71
2023/09/23 07:16:32;;;;;;;2.22;1.10;;;18.80;51.40;;;;;;7404405;19;19928;-72
2023/09/23 07:18:57;;;;;;;5.07;1.58;;;18.90;50.90;;;;;;7403788;19;19918;-72
2023/09/23 07:21:23;;;;;;;2.97;1.00;;;19.00;50.00;;;;;;7401539;19;19948;-72
2023/09/23 07:23:49;;;;;;;3.25;1.00;;;19.00;49.50;;;;;;7402514;19;19927;-72
2023/09/23 07:26:21;;;;;;;3.88;1.17;;;19.00;49.80;;;;;;7404253;19;19922;-72
2023/09/23 07:28:50;;;;;;;2.55;0.90;;;19.10;49.90;;;;;;7403805;19;19923;-72
2023/09/23 07:31:16;;;;;;;3.72;1.00;;;19.10;50.10;;;;;;7400370;19;19923;-72
2023/09/23 07:33:42;;;;;;;2.53;0.80;;;19.20;50.40;;;;;;7401298;19;19994;-71
2023/09/23 07:36:14;;;;;;;3.97;1.20;;;19.20;50.40;;;;;;7400754;19;19950;-71
2023/09/23 07:38:40;;;;;;;2.20;0.70;;;19.20;49.60;;;;;;7402287;19;19954;-72
2023/09/23 07:41:07;;;;;;;2.67;1.02;;;19.20;49.60;;;;;;7401038;19;19935;-72
2023/09/23 07:43:33;;;;;;;2.50;0.95;;;19.20;49.50;;;;;;7403275;19;19945;-72
2023/09/23 07:45:59;;;;;;;2.22;0.80;;;19.20;49.30;;;;;;7400705;19;19966;-72
2023/09/23 07:48:25;;;;;;;3.00;1.02;;;19.30;50.10;;;;;;7398791;19;19915;-71
2023/09/23 07:50:51;;;;;;;3.95;1.23;;;19.40;49.60;;;;;;7401169;19;19918;-72
2023/09/23 07:53:17;;;;;;;5.65;1.42;;;19.30;47.20;;;;;;7401989;19;19982;-71
2023/09/23 07:55:43;;;;;;;3.55;1.08;;;19.30;45.00;;;;;;7401944;19;20251;-72
2023/09/23 07:58:09;;;;;;;2.08;0.63;;;19.30;45.40;;;;;;7398945;19;20212;-72
2023/09/23 08:00:35;;;;;;;2.13;1.00;;;19.20;45.40;;;;;;7402122;19;19926;-71
2023/09/23 08:03:01;;;;;;;3.45;1.33;;;19.20;45.50;;;;;;7402224;19;19922;-72
2023/09/23 08:05:29;;;;;;;5.13;1.20;;;19.20;45.30;;;;;;7402326;19;19932;-71
2023/09/23 08:07:55;;;;;;;3.45;1.00;;;19.20;45.10;;;;;;7395503;19;19911;-71
2023/09/23 08:10:21;;;;;;;3.53;1.13;;;19.20;45.10;;;;;;7396774;19;19921;-73
2023/09/23 08:12:47;;;;;;;4.57;0.63;;;19.30;45.00;;;;;;7400184;19;20429;-72
2023/09/23 08:15:13;;;;;;;2.97;1.02;;;19.40;45.10;;;;;;7400655;19;19930;-72
2023/09/23 08:17:40;;;;;;;3.28;1.27;;;19.50;45.40;;;;;;7400821;19;19919;-71
2023/09/23 08:20:17;;;;;;;3.38;1.30;;;19.60;44.80;;;;;;7399681;19;19924;-72
2023/09/23 08:22:53;;;;;;;2.85;1.60;;;19.80;44.30;;;;;;7400925;19;19938;-72
2023/09/23 08:25:19;;;;;;;4.32;2.28;;;21.90;40.90;;;;;;7399730;19;19911;-72
2023/09/23 08:27:45;;;;;;;3.53;1.40;;;23.20;35.90;;;;;;7401530;19;19925;-73
2023/09/23 08:30:11;;;;;;;;;;;23.80;33.10;;;;;;7388991;19;19929;-71
2023/09/23 08:32:38;;;;;;;4.57;1.75;;;24.40;32.30;;;;;;7397221;19;20593;-74
2023/09/23 08:35:05;;;;;;;3.90;2.15;;;24.40;30.80;;;;;;7395824;19;19918;-72
2023/09/23 08:37:31;;;;;;;2.90;1.00;;;25.60;29.40;;;;;;7397306;19;19921;-72
2023/09/23 08:39:57;;;;;;;4.82;1.98;;;25.40;29.70;;;;;;7390722;19;19959;-73
2023/09/23 08:42:27;;;;;;;4.38;2.33;;;25.70;28.70;;;;;;7387048;19;19939;-74
2023/09/23 08:44:54;;;;;;;3.95;2.35;;;26.20;27.70;;;;;;7391846;19;19957;-72
2023/09/23 08:47:20;;;;;;;2.80;1.73;;;26.30;28.20;;;;;;7399254;19;20375;-73
2023/09/23 08:49:49;;;;;;;4.38;2.22;;;25.90;28.40;;;;;;7399317;19;19978;-72
2023/09/23 08:52:24;;;;;;;4.25;1.98;;;25.90;27.60;;;;;;7394040;19;19922;-73
2023/09/23 08:54:51;;;;;;;4.88;2.33;;;26.10;27.80;;;;;;7395045;19;20395;-72
2023/09/23 08:57:17;;;;;;;4.55;2.22;;;26.60;27.00;;;;;;7399001;19;19942;-72
2023/09/23 08:59:43;;;;;;;5.70;2.65;;;26.80;26.80;;;;;;7399959;19;19947;-73
2023/09/23 09:02:12;;;;;;;4.82;2.10;;;27.00;26.70;;;;;;7398656;19;20382;-72
2023/09/23 09:04:38;;;;;;;3.70;1.65;;;27.20;26.30;;;;;;7398193;19;19956;-72
2023/09/23 09:07:05;;;;;;;4.30;2.35;;;25.40;28.60;;;;;;7398740;19;19918;-71
2023/09/23 09:09:31;;;;;;;3.30;2.58;;;25.70;29.00;;;;;;7398000;19;19924;-72
2023/09/23 09:11:58;;;;;;;3.72;1.10;;;25.60;27.80;;;;;;7374735;19;19918;-72
2023/09/23 09:14:25;;;;;;;3.35;1.92;;;25.80;27.40;;;;;;7375159;19;19926;-72
2023/09/23 09:16:51;;;;;;;4.05;2.15;;;24.60;29.60;;;;;;7396830;19;19978;-73
2023/09/23 09:19:18;;;;;;;5.72;2.30;;;25.80;29.40;;;;;;7394851;19;19922;-72
2023/09/23 09:21:44;;;;;;;4.45;1.88;;;26.60;27.90;;;;;;7395922;19;19943;-73
2023/09/23 09:24:10;;;;;;;3.83;1.95;;;25.30;31.20;;;;;;7393059;19;19918;-72
2023/09/23 09:26:38;;;;;;;7.70;3.13;;;24.50;31.00;;;;;;7383915;19;19922;-72
2023/09/23 09:29:04;;;;;;;4.28;1.38;;;24.40;33.90;;;;;;7390515;19;19914;-73
2023/09/23 09:31:34;;;;;;;;;;;26.10;32.60;;;;;;7395521;19;19914;-73
2023/09/23 09:34:05;;;;;;;6.82;2.58;;;25.30;32.00;;;;;;7398155;19;19911;-72
2023/09/23 09:36:34;;;;;;;6.18;1.80;;;26.30;31.20;;;;;;7398940;19;19922;-72
2023/09/23 09:39:10;;;;;;;3.53;1.35;;;25.40;30.30;;;;;;7399298;19;19915;-72
2023/09/23 09:41:53;;;;;;;3.00;2.35;;;26.10;29.70;;;;;;7397761;19;19918;-73
2023/09/23 09:44:23;;;;;;;4.03;1.45;;;25.70;30.00;;;;;;7397737;19;20305;-74
2023/09/23 09:46:51;;;;;;;3.88;2.40;;;24.50;30.60;;;;;;7400586;19;19935;-73
2023/09/23 09:49:17;;;;;;;3.75;2.15;;;25.10;31.10;;;;;;7396926;19;20013;-73
2023/09/23 09:51:49;;;;;;;3.67;2.17;;;24.40;32.50;;;;;;7399923;19;19914;-72
2023/09/23 09:54:20;;;;;;;6.97;2.38;;;24.00;35.90;;;;;;7399327;19;20331;-73
2023/09/23 09:56:49;;;;;;;5.32;2.30;;;23.70;42.30;;;;;;7399028;19;19914;-72
2023/09/23 09:59:27;;;;;;;5.13;2.95;;;22.70;44.10;;;;;;7397243;19;19914;-72
2023/09/23 10:01:56;;;;;;;4.32;1.60;;;22.70;45.90;;;;;;7399640;19;20015;-72
2023/09/23 10:04:21;;;;;;;6.03;1.60;;;22.70;46.20;;;;;;7398222;19;19915;-72
2023/09/23 10:06:54;;;;;;;5.25;1.73;;;23.20;46.10;;;;;;7399573;19;20468;-71
2023/09/23 10:09:27;;;;;;;;;;;24.10;43.10;;;;;;7400185;19;19922;-71
2023/09/23 10:11:54;;;;;;;5.43;2.47;;;24.30;42.40;;;;;;7398227;19;19919;-72
2023/09/23 10:14:21;;;;;;;5.50;1.83;;;24.70;40.50;;;;;;7398465;19;19918;-73
2023/09/23 10:16:52;;;;;;;4.22;0.98;;;24.20;40.40;;;;;;7399736;19;20011;-71
2023/09/23 10:19:31;;;;;;;5.53;2.85;;;24.00;42.00;;;;;;7398180;19;20339;-72
2023/09/23 10:22:18;;;;;;;7.50;2.50;;;24.20;41.20;;;;;;7399165;19;19933;-71
2023/09/23 10:24:44;;;;;;;4.68;2.13;;;24.70;38.80;;;;;;7403164;19;19914;-72
2023/09/23 10:27:10;;;;;;;;;;;24.80;39.50;;;;;;7383753;19;20277;-72
2023/09/23 10:29:47;;;;;;;4.68;1.88;;;24.90;38.80;;;;;;7403791;19;19911;-72
2023/09/23 10:32:17;;;;;;;4.95;2.13;;;25.10;37.70;;;;;;7401432;19;19922;-72
2023/09/23 10:34:53;;;;;;;5.32;2.17;;;24.50;37.40;;;;;;7405021;19;19907;-72
2023/09/23 10:37:32;;;;;;;7.53;2.72;;;24.00;39.30;;;;;;7403891;19;19942;-73
2023/09/23 10:40:17;;;;;;;5.75;1.92;;;24.70;38.60;;;;;;7405461;19;19971;-71
2023/09/23 10:42:46;;;;;;;5.65;2.35;;;23.50;39.80;;;;;;7402873;19;20338;-71
2023/09/23 10:45:14;;;;;;;5.78;2.55;;;24.50;40.40;;;;;;7399764;19;19922;-72
2023/09/23 10:47:43;;;;;;;7.35;2.35;;;24.70;37.30;;;;;;7404501;19;19922;-72
2023/09/23 10:50:10;;;;;;;7.57;2.00;;;24.40;40.10;;;;;;7402494;19;19922;-72
2023/09/23 10:52:36;;;;;;;6.53;2.42;;;23.90;40.10;;;;;;7403598;19;19935;-71
2023/09/23 10:55:04;;;;;;;8.82;2.40;;;23.40;41.50;;;;;;7403634;19;19922;-73
2023/09/23 10:57:31;;;;;;;5.80;2.33;;;23.70;41.70;;;;;;7406036;19;19911;-72
2023/09/23 10:59:58;;;;;;;3.70;1.45;;;24.70;39.00;;;;;;7406945;19;20299;-71
2023/09/23 11:02:24;;;;;;;4.80;2.25;;;23.70;39.10;;;;;;7402800;19;19934;-71
2023/09/23 11:04:53;;;;;;;5.07;2.30;;;24.80;38.30;;;;;;7405198;19;19935;-72
2023/09/23 11:07:20;;;;;;;5.32;2.53;;;24.80;38.00;;;;;;7401255;19;19914;-72
2023/09/23 11:09:47;;;;;;;7.63;2.65;;;24.90;37.20;;;;;;7403767;19;19922;-73
2023/09/23 11:12:16;;;;;;;5.57;2.45;;;25.40;37.40;;;;;;7402642;19;19918;-73
2023/09/23 11:14:46;;;;;;;5.07;1.33;;;24.90;38.30;;;;;;7402928;19;19923;-72
2023/09/23 11:17:29;;;;;;;5.25;3.08;;;23.50;40.20;;;;;;7402802;19;19918;-73
2023/09/23 11:19:59;;;;;;;6.07;2.90;;;25.20;37.80;;;;;;7399115;19;20375;-70
2023/09/23 11:22:29;;;;;;;8.95;2.50;;;24.40;37.70;;;;;;7400113;19;19922;-71
2023/09/23 11:24:57;;;;;;;5.63;2.33;;;25.40;36.80;;;;;;7400915;19;19915;-71
2023/09/23 11:27:24;;;;;;;5.90;2.20;;;25.20;37.50;;;;;;7398247;19;20932;-71
2023/09/23 11:29:51;;;;;;;7.95;1.83;;;23.80;41.70;;;;;;7402673;19;19961;-70
2023/09/23 11:32:22;;;;;;;6.45;2.15;;;23.50;43.40;;;;;;7401694;19;19924;-72
2023/09/23 11:34:48;;;;;;;6.30;3.00;;;23.90;43.70;;;;;;7381754;19;19914;-71
2023/09/23 11:37:14;;;;;;;5.57;2.05;;;24.70;41.00;;;;;;7402376;19;19922;-70
2023/09/23 11:39:40;;;;;;;7.32;2.17;;;24.10;42.30;;;;;;7401982;19;20698;-71
2023/09/23 11:42:06;;;;;;;7.38;2.83;;;24.50;41.60;;;;;;7398573;19;19918;-71
2023/09/23 11:44:34;;;;;;;5.22;2.55;;;24.60;41.30;;;;;;7402258;19;19919;-71
2023/09/23 11:47:00;;;;;;;7.60;2.20;;;25.00;41.10;;;;;;7384271;19;19922;-70
2023/09/23 11:49:26;;;;;;;;;;;25.10;39.70;;;;;;7393742;19;19918;-70
2023/09/23 11:51:52;;;;;;;5.65;2.60;;;25.90;39.10;;;;;;7398058;19;19974;-71
2023/09/23 11:54:19;;;;;;;5.90;2.17;;;26.00;37.50;;;;;;7393495;19;19911;-71
2023/09/23 11:56:44;;;;;;;5.88;2.80;;;24.70;39.90;;;;;;7390895;19;19926;-71
2023/09/23 11:59:10;;;;;;;8.50;2.50;;;25.70;39.30;;;;;;7394354;19;20334;-71
2023/09/23 12:01:36;;;;;;;5.68;2.33;;;24.70;40.40;;;;;;7398560;19;19925;-71
2023/09/23 12:04:02;;;;;;;5.13;3.42;;;24.40;40.60;;;;;;7400594;19;19918;-70
2023/09/23 12:06:29;;;;;;;4.22;3.15;;;25.70;39.60;;;;;;7394560;19;20022;-71
2023/09/23 12:08:55;;;;;;;4.72;2.45;;;26.20;38.60;;;;;;7394617;19;19945;-71
2023/09/23 12:11:21;;;;;;;;;;;27.00;36.50;;;;;;7400235;19;19919;-71
2023/09/23 12:13:52;;;;;;;5.18;2.35;;;26.20;36.90;;;;;;7395484;19;20320;-71
2023/09/23 12:16:18;;;;;;;6.88;3.53;;;25.60;38.10;;;;;;7392509;19;19917;-70
2023/09/23 12:18:46;;;;;;;4.68;3.33;;;25.10;40.50;;;;;;7399193;19;20339;-70
2023/09/23 12:21:12;;;;;;;7.10;3.38;;;26.10;40.80;;;;;;7377180;19;20755;-70
2023/09/23 12:23:38;;;;;;;7.43;3.15;;;26.90;38.30;;;;;;7399317;19;19918;-71
2023/09/23 12:26:04;;;;;;;5.13;3.20;;;27.60;36.80;;;;;;7392210;19;19971;-72
2023/09/23 12:28:30;;;;;;;5.57;2.85;;;27.80;35.20;;;;;;7400133;19;20359;-70
2023/09/23 12:30:56;;;;;;;;;;;27.70;34.70;;;;;;7397257;19;19915;-72
2023/09/23 12:33:22;;;;;;;6.63;3.15;;;27.50;35.30;;;;;;7398425;19;20363;-71
2023/09/23 12:35:47;;;;;;;5.38;2.67;;;27.20;38.00;;;;;;7401277;19;19922;-73
2023/09/23 12:38:13;;;;;;;;;;;26.30;38.80;;;;;;7378704;19;19919;-72
2023/09/23 12:40:39;;;;;;;6.22;2.92;;;26.20;39.70;;;;;;7401552;19;19938;-72
2023/09/23 12:43:05;;;;;;;;;;;27.20;37.90;;;;;;7399141;19;19927;-73
2023/09/23 12:45:31;;;;;;;6.57;3.40;;;27.30;37.50;;;;;;7398275;19;19926;-72
2023/09/23 12:47:56;;;;;;;;;;;27.40;36.70;;;;;;7403328;19;19933;-73
2023/09/23 12:50:22;;;;;;;6.28;2.72;;;27.50;35.80;;;;;;7400579;19;20488;-71
2023/09/23 12:52:48;;;;;;;;;;;26.30;38.30;;;;;;7401897;19;20297;-72
2023/09/23 12:55:14;;;;;;;7.20;2.53;;;26.40;41.00;;;;;;7399077;19;19923;-72